createdAt,value
2023-05-06T00:02:10.732Z,100041.71
2023-05-06T00:04:38.636Z,100041.06
2023-05-06T00:07:06.068Z,100045.14
2023-05-06T00:09:32.890Z,100055.13
2023-05-06T00:11:59.957Z,100055.55
2023-05-06T00:14:27.208Z,100056.60
2023-05-06T00:16:54.461Z,100056.58
2023-05-06T00:19:22.146Z,100060.92
2023-05-06T00:21:49.024Z,100062.44
2023-05-06T00:24:15.913Z,100069.08
2023-05-06T00:26:42.720Z,100076.04
2023-05-06T00:29:09.617Z,100082.80
2023-05-06T00:31:36.502Z,100081.95
2023-05-06T00:34:03.339Z,100080.11
2023-05-06T00:36:30.258Z,100077.98
2023-05-06T00:38:57.339Z,100076.93
2023-05-06T00:41:24.278Z,100074.46
2023-05-06T00:43:51.127Z,100073.95
2023-05-06T00:46:18.513Z,100074.28
2023-05-06T00:48:45.948Z,100074.84
2023-05-06T00:51:12.897Z,100071.59
2023-05-06T00:53:40.263Z,100072.77
2023-05-06T00:56:07.585Z,100071.40
2023-05-06T00:58:34.635Z,100063.77
2023-05-06T01:01:02.068Z,100053.04
2023-05-06T01:03:29.293Z,100054.59
2023-05-06T01:06:19.473Z,100054.96
2023-05-06T01:09:10.878Z,100058.90
2023-05-06T01:11:51.361Z,100055.69
2023-05-06T01:14:36.510Z,100050.68
2023-05-06T01:17:06.406Z,100048.06
2023-05-06T01:19:34.942Z,100052.73
2023-05-06T01:22:03.542Z,100051.69
2023-05-06T01:24:44.161Z,100050.80
2023-05-06T01:27:12.284Z,100049.36
2023-05-06T01:29:42.061Z,100049.16
2023-05-06T01:32:22.036Z,100055.20
2023-05-06T01:34:55.191Z,100062.02
2023-05-06T01:37:47.420Z,100061.58
2023-05-06T01:40:15.092Z,100059.94
2023-05-06T01:42:42.042Z,100063.80
2023-05-06T01:45:09.786Z,100067.22
2023-05-06T01:47:37.090Z,100067.61
2023-05-06T01:50:04.699Z,100067.65
2023-05-06T01:52:33.132Z,100067.25
2023-05-06T01:54:59.965Z,100067.27
2023-05-06T01:57:27.631Z,100072.61
2023-05-06T01:59:54.482Z,100074.30
2023-05-06T02:02:21.469Z,100074.14
2023-05-06T02:04:48.481Z,100077.71
2023-05-06T02:07:15.662Z,100075.77
2023-05-06T02:09:43.924Z,100079.39
2023-05-06T02:12:11.612Z,100074.91
2023-05-06T02:14:38.453Z,100075.27
2023-05-06T02:17:06.235Z,100078.38
2023-05-06T02:19:33.262Z,100081.59
2023-05-06T02:22:00.168Z,100078.07
2023-05-06T02:24:27.058Z,100075.73
2023-05-06T02:26:53.905Z,100072.22
2023-05-06T02:29:20.959Z,100074.83
2023-05-06T02:31:47.857Z,100079.31
2023-05-06T02:34:16.598Z,100083.42
2023-05-06T02:36:43.560Z,100086.92
2023-05-06T02:39:10.497Z,100088.08
2023-05-06T02:41:37.456Z,100087.32
2023-05-06T02:44:04.475Z,100090.90
2023-05-06T02:46:31.306Z,100094.59
2023-05-06T02:48:58.188Z,100095.84
2023-05-06T02:51:25.148Z,100096.77
2023-05-06T02:53:52.201Z,100097.71
2023-05-06T02:56:19.163Z,100100.65
2023-05-06T02:58:46.001Z,100097.71
2023-05-06T03:01:13.180Z,100098.56
2023-05-06T03:03:40.204Z,100100.36
2023-05-06T03:06:07.171Z,100101.13
2023-05-06T03:08:34.105Z,100104.98
2023-05-06T03:11:01.594Z,100102.55
2023-05-06T03:13:28.863Z,100109.96
2023-05-06T03:15:56.515Z,100111.73
2023-05-06T03:18:24.265Z,100120.81
2023-05-06T03:20:51.622Z,100122.60
2023-05-06T03:23:18.528Z,100129.95
2023-05-06T03:25:46.050Z,100130.68
2023-05-06T03:28:13.521Z,100129.42
2023-05-06T03:30:41.162Z,100133.84
2023-05-06T03:33:08.658Z,100138.46
2023-05-06T03:35:35.743Z,100140.25
2023-05-06T03:38:02.941Z,100146.46
2023-05-06T03:40:41.341Z,100153.05
2023-05-06T03:43:08.626Z,100160.92
2023-05-06T03:45:36.103Z,100161.10
2023-05-06T03:48:03.578Z,100157.55
2023-05-06T03:50:31.294Z,100160.75
2023-05-06T03:52:58.271Z,100160.85
2023-05-06T03:55:25.517Z,100166.14
2023-05-06T03:57:52.663Z,100167.64
2023-05-06T04:00:20.442Z,100170.73
2023-05-06T04:02:49.657Z,100172.08
2023-05-06T04:05:21.286Z,100176.91
2023-05-06T04:07:48.364Z,100176.41
2023-05-06T04:10:15.311Z,100177.42
2023-05-06T04:12:43.434Z,100180.85
2023-05-06T04:15:12.171Z,100182.57
2023-05-06T04:17:39.818Z,100186.39
2023-05-06T04:20:11.627Z,100186.04
2023-05-06T04:22:39.358Z,100191.67
2023-05-06T04:25:08.708Z,100193.10
2023-05-06T04:27:36.407Z,100193.35
2023-05-06T04:30:04.744Z,100194.12
2023-05-06T04:32:31.998Z,100196.11
2023-05-06T04:34:59.129Z,100191.44
2023-05-06T04:37:28.532Z,100188.27
2023-05-06T04:40:04.609Z,100192.91
2023-05-06T04:42:32.670Z,100194.08
2023-05-06T04:45:06.607Z,100196.55
2023-05-06T04:47:34.191Z,100195.45
2023-05-06T04:50:01.716Z,100190.16
2023-05-06T04:52:28.997Z,100196.20
2023-05-06T04:54:55.922Z,100194.83
2023-05-06T04:57:23.178Z,100197.86
2023-05-06T04:59:50.744Z,100198.74
2023-05-06T05:02:17.975Z,100201.08
2023-05-06T05:04:44.912Z,100202.81
2023-05-06T05:07:11.837Z,100203.67
2023-05-06T05:09:38.957Z,100201.36
2023-05-06T05:12:06.936Z,100203.46
2023-05-06T05:14:35.919Z,100197.98
2023-05-06T05:17:03.102Z,100200.13
2023-05-06T05:19:30.029Z,100199.36
2023-05-06T05:21:57.297Z,100194.95
2023-05-06T05:24:25.058Z,100196.56
2023-05-06T05:26:51.906Z,100201.83
2023-05-06T05:29:18.804Z,100200.17
2023-05-06T05:31:46.496Z,100198.65
2023-05-06T05:34:13.681Z,100199.42
2023-05-06T05:36:40.853Z,100204.63
2023-05-06T05:39:09.740Z,100204.59
2023-05-06T05:41:39.655Z,100204.59
2023-05-06T05:44:07.014Z,100210.95
2023-05-06T05:46:34.220Z,100216.23
2023-05-06T05:49:02.389Z,100219.77
2023-05-06T05:51:32.358Z,100215.80
2023-05-06T05:54:00.241Z,100219.17
2023-05-06T05:56:27.404Z,100221.71
2023-05-06T05:58:54.322Z,100220.34
2023-05-06T06:01:21.709Z,100217.89
2023-05-06T06:03:49.738Z,100214.44
2023-05-06T06:06:16.932Z,100213.77
2023-05-06T06:08:44.794Z,100216.53
2023-05-06T06:11:12.438Z,100215.48
2023-05-06T06:13:40.545Z,100213.42
2023-05-06T06:16:08.244Z,100221.42
2023-05-06T06:18:35.685Z,100222.24
2023-05-06T06:21:03.076Z,100227.29
2023-05-06T06:23:29.940Z,100227.83
2023-05-06T06:25:56.831Z,100226.44
2023-05-06T06:28:23.800Z,100230.48
2023-05-06T06:30:50.970Z,100227.83
2023-05-06T06:33:17.898Z,100227.23
2023-05-06T06:35:45.245Z,100232.34
2023-05-06T06:38:12.109Z,100235.48
2023-05-06T06:40:38.981Z,100240.67
2023-05-06T06:43:05.805Z,100238.45
2023-05-06T06:45:51.593Z,100241.15
2023-05-06T06:48:19.067Z,100246.21
2023-05-06T06:50:45.987Z,100243.27
2023-05-06T06:53:12.820Z,100247.64
2023-05-06T06:55:43.187Z,100252.98
2023-05-06T06:58:10.062Z,100250.76
2023-05-06T07:00:36.950Z,100249.35
2023-05-06T07:03:04.109Z,100251.89
2023-05-06T07:05:31.372Z,100254.86
2023-05-06T07:07:58.323Z,100252.95
2023-05-06T07:10:25.220Z,100258.52
2023-05-06T07:12:52.185Z,100258.65
2023-05-06T07:15:19.479Z,100258.96
2023-05-06T07:17:46.370Z,100253.81
2023-05-06T07:20:13.252Z,100261.38
2023-05-06T07:22:41.459Z,100258.35
2023-05-06T07:25:09.116Z,100259.94
2023-05-06T07:27:36.415Z,100258.76
2023-05-06T07:30:03.749Z,100263.72
2023-05-06T07:32:30.988Z,100266.63
2023-05-06T07:34:57.970Z,100263.28
2023-05-06T07:37:27.673Z,100270.19
2023-05-06T07:39:54.616Z,100268.50
2023-05-06T07:42:21.489Z,100265.15
2023-05-06T07:44:48.367Z,100269.48
2023-05-06T07:47:27.578Z,100264.61
2023-05-06T07:49:55.142Z,100261.59
2023-05-06T07:52:23.103Z,100267.94
2023-05-06T07:54:50.115Z,100277.02
2023-05-06T07:57:17.188Z,100273.38
2023-05-06T07:59:46.812Z,100277.34
2023-05-06T08:02:13.687Z,100281.55
2023-05-06T08:04:41.004Z,100280.00
2023-05-06T08:07:08.075Z,100277.23
2023-05-06T08:09:34.917Z,100281.27
2023-05-06T08:12:01.964Z,100285.44
2023-05-06T08:14:28.919Z,100281.92
2023-05-06T08:16:55.984Z,100282.60
2023-05-06T08:19:22.925Z,100288.83
2023-05-06T08:21:50.642Z,100281.17
2023-05-06T08:24:17.535Z,100272.14
2023-05-06T08:26:44.488Z,100277.03
2023-05-06T08:29:11.443Z,100276.90
2023-05-06T08:31:38.552Z,100278.10
2023-05-06T08:34:05.703Z,100277.35
2023-05-06T08:36:32.701Z,100278.56
2023-05-06T08:38:59.561Z,100279.47
2023-05-06T08:41:26.606Z,100281.97
2023-05-06T08:43:53.756Z,100280.46
2023-05-06T08:46:20.680Z,100280.20
2023-05-06T08:48:47.767Z,100279.97
2023-05-06T08:51:17.970Z,100284.33
2023-05-06T08:53:48.562Z,100284.20
2023-05-06T08:56:16.510Z,100290.06
2023-05-06T08:58:45.591Z,100288.23
2023-05-06T09:01:14.025Z,100290.73
2023-05-06T09:03:40.950Z,100297.73
2023-05-06T09:06:08.139Z,100296.11
2023-05-06T09:08:36.386Z,100300.42
2023-05-06T09:11:03.419Z,100297.02
2023-05-06T09:13:31.006Z,100289.30
2023-05-06T09:15:57.928Z,100290.17
2023-05-06T09:18:24.874Z,100298.05
2023-05-06T09:20:51.934Z,100298.17
2023-05-06T09:23:19.307Z,100295.76
2023-05-06T09:25:47.180Z,100299.52
2023-05-06T09:28:14.397Z,100296.04
2023-05-06T09:30:45.620Z,100288.45
2023-05-06T09:33:12.637Z,100290.90
2023-05-06T09:35:41.182Z,100298.56
2023-05-06T09:38:08.991Z,100293.07
2023-05-06T09:40:36.544Z,100289.61
2023-05-06T09:43:04.141Z,100286.45
2023-05-06T09:45:31.062Z,100293.11
2023-05-06T09:47:58.813Z,100291.21
2023-05-06T09:50:26.853Z,100297.45
2023-05-06T09:52:53.828Z,100290.38
2023-05-06T09:55:21.637Z,100284.67
2023-05-06T09:57:49.496Z,100284.61
2023-05-06T10:00:17.311Z,100279.90
2023-05-06T10:02:45.764Z,100285.69
2023-05-06T10:05:13.479Z,100287.92
2023-05-06T10:07:42.533Z,100284.13
2023-05-06T10:10:11.490Z,100279.74
2023-05-06T10:12:38.517Z,100277.84
2023-05-06T10:15:06.379Z,100280.95
2023-05-06T10:17:33.340Z,100280.23
2023-05-06T10:20:01.037Z,100275.13
2023-05-06T10:22:39.264Z,100276.41
2023-05-06T10:25:16.989Z,100278.27
2023-05-06T10:27:43.887Z,100276.35
2023-05-06T10:30:14.650Z,100285.19
2023-05-06T10:32:43.194Z,100280.77
2023-05-06T10:35:44.293Z,100288.80
2023-05-06T10:38:15.642Z,100281.30
2023-05-06T10:40:43.175Z,100275.39
2023-05-06T10:43:30.914Z,100271.52
2023-05-06T10:46:18.109Z,100269.58
2023-05-06T10:49:14.028Z,100270.54
2023-05-06T10:51:43.935Z,100277.59
2023-05-06T10:54:11.716Z,100276.69
2023-05-06T10:56:51.147Z,100282.02
2023-05-06T10:59:22.192Z,100281.58
2023-05-06T11:01:57.438Z,100282.70
2023-05-06T11:04:24.384Z,100280.44
2023-05-06T11:06:53.207Z,100284.67
2023-05-06T11:09:20.967Z,100275.23
2023-05-06T11:12:04.487Z,100276.89
2023-05-06T11:14:38.605Z,100268.44
2023-05-06T11:17:07.057Z,100268.66
2023-05-06T11:19:35.394Z,100265.67
2023-05-06T11:22:04.100Z,100272.21
2023-05-06T11:24:41.877Z,100271.89
2023-05-06T11:27:09.509Z,100273.61
2023-05-06T11:29:37.285Z,100271.55
2023-05-06T11:32:05.713Z,100269.73
2023-05-06T11:34:33.020Z,100264.03
2023-05-06T11:37:03.567Z,100265.23
2023-05-06T11:39:38.773Z,100266.91
2023-05-06T11:42:07.358Z,100266.14
2023-05-06T11:44:35.885Z,100261.67
2023-05-06T11:47:07.061Z,100259.58
2023-05-06T11:49:43.321Z,100256.52
2023-05-06T11:52:10.894Z,100258.65
2023-05-06T11:54:41.994Z,100253.67
2023-05-06T11:57:09.092Z,100259.10
2023-05-06T11:59:40.079Z,100252.23
2023-05-06T12:02:08.888Z,100260.49
2023-05-06T12:04:43.345Z,100254.33
2023-05-06T12:07:14.369Z,100256.52
2023-05-06T12:09:49.388Z,100256.18
2023-05-06T12:12:17.654Z,100251.02
2023-05-06T12:14:44.597Z,100248.18
2023-05-06T12:17:12.479Z,100250.95
2023-05-06T12:19:39.366Z,100253.42
2023-05-06T12:22:16.246Z,100255.42
2023-05-06T12:24:43.240Z,100249.73
2023-05-06T12:27:10.215Z,100249.03
2023-05-06T12:29:37.076Z,100247.79
2023-05-06T12:32:10.952Z,100248.43
2023-05-06T12:34:41.405Z,100251.81
2023-05-06T12:37:08.953Z,100251.45
2023-05-06T12:39:36.943Z,100252.97
2023-05-06T12:42:03.982Z,100252.34
2023-05-06T12:44:37.608Z,100257.98
2023-05-06T12:47:08.959Z,100254.36
2023-05-06T12:49:55.559Z,100258.89
2023-05-06T12:52:23.618Z,100255.91
2023-05-06T12:54:50.669Z,100260.61
2023-05-06T12:57:17.737Z,100268.27
2023-05-06T12:59:45.866Z,100269.12
2023-05-06T13:02:13.106Z,100266.52
2023-05-06T13:04:40.862Z,100264.30
2023-05-06T13:07:07.981Z,100261.70
2023-05-06T13:09:34.933Z,100266.36
2023-05-06T13:12:02.759Z,100262.33
2023-05-06T13:14:29.668Z,100266.98
2023-05-06T13:16:56.581Z,100264.48
2023-05-06T13:19:32.466Z,100263.23
2023-05-06T13:22:01.305Z,100262.62
2023-05-06T13:24:29.355Z,100257.61
2023-05-06T13:26:57.603Z,100261.55
2023-05-06T13:29:24.721Z,100258.73
2023-05-06T13:31:51.962Z,100260.98
2023-05-06T13:34:19.014Z,100265.67
2023-05-06T13:36:47.868Z,100271.45
2023-05-06T13:39:16.206Z,100268.56
2023-05-06T13:41:45.883Z,100267.04
2023-05-06T13:44:12.808Z,100266.42
2023-05-06T13:46:39.898Z,100273.80
2023-05-06T13:49:06.852Z,100274.17
2023-05-06T13:51:34.792Z,100274.98
2023-05-06T13:54:02.490Z,100273.35
2023-05-06T13:56:29.417Z,100274.21
2023-05-06T13:58:56.495Z,100277.52
2023-05-06T14:01:24.239Z,100273.42
2023-05-06T14:03:51.141Z,100280.36
2023-05-06T14:06:18.041Z,100284.52
2023-05-06T14:08:45.422Z,100279.32
2023-05-06T14:11:12.351Z,100282.30
2023-05-06T14:13:39.744Z,100279.66
2023-05-06T14:16:07.065Z,100285.11
2023-05-06T14:18:34.172Z,100287.72
2023-05-06T14:21:01.059Z,100285.83
2023-05-06T14:23:28.019Z,100284.77
2023-05-06T14:25:54.881Z,100289.40
2023-05-06T14:28:21.817Z,100292.09
2023-05-06T14:30:50.963Z,100292.23
2023-05-06T14:33:17.860Z,100288.30
2023-05-06T14:35:46.169Z,100286.54
2023-05-06T14:38:13.354Z,100281.28
2023-05-06T14:40:40.645Z,100284.01
2023-05-06T14:43:07.644Z,100287.17
2023-05-06T14:45:35.157Z,100291.33
2023-05-06T14:48:02.477Z,100293.55
2023-05-06T14:50:30.317Z,100290.09
2023-05-06T14:52:57.450Z,100294.02
2023-05-06T14:55:24.704Z,100293.89
2023-05-06T14:57:51.657Z,100296.04
2023-05-06T15:00:19.446Z,100295.93
2023-05-06T15:02:46.430Z,100292.48
2023-05-06T15:05:13.890Z,100292.66
2023-05-06T15:07:41.898Z,100295.55
2023-05-06T15:10:09.236Z,100300.98
2023-05-06T15:12:37.209Z,100296.48
2023-05-06T15:15:05.511Z,100291.39
2023-05-06T15:17:32.831Z,100289.60
2023-05-06T15:19:59.859Z,100294.34
2023-05-06T15:22:26.841Z,100296.33
2023-05-06T15:24:53.751Z,100294.45
2023-05-06T15:27:20.697Z,100296.41
2023-05-06T15:29:47.554Z,100297.14
2023-05-06T15:32:14.405Z,100298.23
2023-05-06T15:34:41.464Z,100296.02
2023-05-06T15:37:08.385Z,100296.52
2023-05-06T15:39:39.150Z,100298.44
2023-05-06T15:42:06.432Z,100298.73
2023-05-06T15:44:33.992Z,100301.23
2023-05-06T15:47:01.026Z,100302.08
2023-05-06T15:52:00.566Z,100304.93
2023-05-06T15:54:28.202Z,100304.88
2023-05-06T15:56:55.152Z,100310.64
2023-05-06T15:59:22.006Z,100310.62
2023-05-06T16:04:19.014Z,100305.95
2023-05-06T16:06:46.123Z,100304.20
2023-05-06T16:09:13.093Z,100304.39
2023-05-06T16:11:39.954Z,100302.61
2023-05-06T16:14:06.874Z,100311.02
2023-05-06T16:16:33.923Z,100317.70
2023-05-06T16:19:00.876Z,100318.54
2023-05-06T16:21:28.778Z,100315.08
2023-05-06T16:23:55.672Z,100311.61
2023-05-06T16:26:22.569Z,100313.42
2023-05-06T16:28:49.518Z,100314.06
2023-05-06T16:31:16.477Z,100321.42
2023-05-06T16:33:43.405Z,100323.24
2023-05-06T16:36:10.561Z,100325.27
2023-05-06T16:38:37.831Z,100328.58
2023-05-06T16:41:05.408Z,100334.98
2023-05-06T16:43:32.248Z,100339.63
2023-05-06T16:45:59.184Z,100340.65
2023-05-06T16:48:26.290Z,100344.52
2023-05-06T16:50:53.235Z,100347.40
2023-05-06T16:53:20.880Z,100353.51
2023-05-06T16:55:48.823Z,100355.17
2023-05-06T16:58:15.995Z,100361.63
2023-05-06T17:00:43.243Z,100369.30
2023-05-06T17:03:10.472Z,100367.94
2023-05-06T17:05:37.753Z,100370.83
2023-05-06T17:08:05.591Z,100374.64
2023-05-06T17:10:32.600Z,100380.70
2023-05-06T17:12:59.644Z,100378.98
2023-05-06T17:15:26.784Z,100384.59
2023-05-06T17:17:53.755Z,100386.73
2023-05-06T17:20:21.012Z,100392.13
2023-05-06T17:22:48.156Z,100396.33
2023-05-06T17:25:15.370Z,100398.77
2023-05-06T17:27:42.350Z,100406.41
2023-05-06T17:30:12.595Z,100407.78
2023-05-06T17:32:39.878Z,100418.15
2023-05-06T17:35:07.900Z,100418.66
2023-05-06T17:37:34.988Z,100427.04
2023-05-06T17:40:02.368Z,100429.01
2023-05-06T17:42:30.300Z,100437.29
2023-05-06T17:44:57.188Z,100439.59
2023-05-06T17:47:24.132Z,100445.95
2023-05-06T17:49:52.712Z,100449.20
2023-05-06T17:52:20.051Z,100450.38
2023-05-06T17:54:57.144Z,100448.80
2023-05-06T17:57:30.523Z,100451.29
2023-05-06T17:59:57.384Z,100451.09
2023-05-06T18:02:24.336Z,100459.07
2023-05-06T18:04:51.888Z,100461.30
2023-05-06T18:07:18.772Z,100459.50
2023-05-06T18:09:51.900Z,100468.11
2023-05-06T18:12:19.813Z,100467.15
2023-05-06T18:14:47.598Z,100472.84
2023-05-06T18:17:14.455Z,100469.77
2023-05-06T18:19:41.362Z,100475.44
2023-05-06T18:22:08.237Z,100473.19
2023-05-06T18:24:35.166Z,100481.70
2023-05-06T18:27:02.536Z,100486.88
2023-05-06T18:29:30.522Z,100486.61
2023-05-06T18:31:57.582Z,100485.90
2023-05-06T18:34:24.555Z,100497.45
2023-05-06T18:36:51.554Z,100482.40
2023-05-06T18:39:18.509Z,100483.91
2023-05-06T18:41:45.559Z,100481.71
2023-05-06T18:44:12.422Z,100476.67
2023-05-06T18:46:39.563Z,100478.23
2023-05-06T18:49:08.172Z,100482.30
2023-05-06T18:51:35.103Z,100489.77
2023-05-06T18:54:02.060Z,100494.37
2023-05-06T18:56:29.037Z,100499.40
2023-05-06T18:58:55.971Z,100503.20
2023-05-06T19:01:23.064Z,100503.63
2023-05-06T19:03:50.215Z,100501.61
2023-05-06T19:06:17.214Z,100494.74
2023-05-06T19:08:44.173Z,100490.68
2023-05-06T19:11:15.638Z,100496.74
2023-05-06T19:13:46.496Z,100503.03
2023-05-06T19:16:13.896Z,100505.45
2023-05-06T19:18:40.973Z,100514.28
2023-05-06T19:21:12.044Z,100512.88
2023-05-06T19:23:39.284Z,100515.56
2023-05-06T19:26:06.757Z,100514.06
2023-05-06T19:28:34.489Z,100514.93
2023-05-06T19:31:01.641Z,100518.29
2023-05-06T19:33:28.925Z,100520.41
2023-05-06T19:35:55.874Z,100523.02
2023-05-06T19:38:22.726Z,100535.13
2023-05-06T19:40:49.644Z,100531.85
2023-05-06T19:43:16.826Z,100532.08
2023-05-06T19:45:43.758Z,100529.02
2023-05-06T19:48:10.767Z,100536.59
2023-05-06T19:50:37.679Z,100544.13
2023-05-06T19:53:04.540Z,100538.54
2023-05-06T19:55:31.788Z,100538.56
2023-05-06T19:57:58.960Z,100540.19
2023-05-06T20:00:28.121Z,100548.14
2023-05-06T20:02:57.015Z,100545.94
2023-05-06T20:05:24.735Z,100552.55
2023-05-06T20:07:51.657Z,100561.77
2023-05-06T20:10:18.615Z,100547.65
2023-05-06T20:12:45.518Z,100551.14
2023-05-06T20:15:12.779Z,100553.48
2023-05-06T20:17:39.973Z,100556.53
2023-05-06T20:20:11.819Z,100554.65
2023-05-06T20:22:39.641Z,100556.64
2023-05-06T20:25:16.301Z,100554.88
2023-05-06T20:27:43.981Z,100554.72
2023-05-06T20:30:11.456Z,100569.52
2023-05-06T20:32:39.409Z,100559.41
2023-05-06T20:35:06.898Z,100559.77
2023-05-06T20:37:35.427Z,100559.81
2023-05-06T20:40:04.914Z,100565.46
2023-05-06T20:42:32.024Z,100554.98
2023-05-06T20:44:59.052Z,100554.13
2023-05-06T20:47:26.523Z,100556.09
2023-05-06T20:49:53.683Z,100550.38
2023-05-06T20:52:21.765Z,100553.27
2023-05-06T20:54:48.862Z,100548.12
2023-05-06T20:57:16.697Z,100552.50
2023-05-06T20:59:43.666Z,100544.16
2023-05-06T21:02:10.664Z,100543.98
2023-05-06T21:04:37.726Z,100549.46
2023-05-06T21:07:04.675Z,100554.58
2023-05-06T21:09:31.614Z,100550.29
2023-05-06T21:11:58.579Z,100553.55
2023-05-06T21:14:26.272Z,100558.23
2023-05-06T21:16:53.386Z,100552.10
2023-05-06T21:19:20.642Z,100546.47
2023-05-06T21:21:47.566Z,100555.01
2023-05-06T21:24:14.554Z,100560.92
2023-05-06T21:26:41.611Z,100559.73
2023-05-06T21:29:08.509Z,100567.41
2023-05-06T21:31:35.466Z,100560.61
2023-05-06T21:34:03.681Z,100563.05
2023-05-06T21:36:31.350Z,100564.89
2023-05-06T21:39:08.066Z,100566.61
2023-05-06T21:41:36.254Z,100566.65
2023-05-06T21:44:07.144Z,100574.30
2023-05-06T21:46:34.975Z,100568.73
2023-05-06T21:49:02.047Z,100566.96
2023-05-06T21:51:30.578Z,100573.27
2023-05-06T21:53:57.452Z,100563.83
2023-05-06T21:56:24.434Z,100565.46
2023-05-06T21:58:52.938Z,100568.42
2023-05-06T22:01:19.946Z,100564.08
2023-05-06T22:03:48.042Z,100571.36
2023-05-06T22:06:15.736Z,100564.04
2023-05-06T22:08:42.725Z,100563.52
2023-05-06T22:11:09.612Z,100563.91
2023-05-06T22:13:36.685Z,100565.82
2023-05-06T22:16:04.187Z,100560.90
2023-05-06T22:18:31.843Z,100555.61
2023-05-06T22:20:58.873Z,100547.98
2023-05-06T22:23:26.044Z,100548.13
2023-05-06T22:25:52.994Z,100550.27
2023-05-06T22:28:20.134Z,100548.58
2023-05-06T22:30:47.097Z,100548.88
2023-05-06T22:33:14.334Z,100545.59
2023-05-06T22:35:41.283Z,100551.59
2023-05-06T22:38:08.373Z,100550.88
2023-05-06T22:40:35.266Z,100546.16
2023-05-06T22:43:02.136Z,100548.76
2023-05-06T22:45:29.114Z,100556.14
2023-05-06T22:47:56.121Z,100554.53
2023-05-06T22:50:23.196Z,100551.34
2023-05-06T22:52:50.155Z,100552.05
2023-05-06T22:55:17.098Z,100548.52
2023-05-06T22:57:44.365Z,100545.46
2023-05-06T23:00:12.909Z,100538.71
2023-05-06T23:02:40.058Z,100535.25
2023-05-06T23:05:07.455Z,100533.41
2023-05-06T23:07:34.405Z,100533.62
2023-05-06T23:10:01.361Z,100544.51
2023-05-06T23:12:32.401Z,100543.65
2023-05-06T23:15:00.380Z,100541.14
2023-05-06T23:17:27.345Z,100536.36
2023-05-06T23:19:59.198Z,100538.63
2023-05-06T23:22:26.850Z,100542.16
2023-05-06T23:24:55.083Z,100549.55
2023-05-06T23:27:22.030Z,100549.55
2023-05-06T23:29:49.108Z,100545.10
2023-05-06T23:32:15.982Z,100549.05
2023-05-06T23:34:42.863Z,100551.12
2023-05-06T23:37:11.872Z,100556.63
2023-05-06T23:39:39.090Z,100553.98
2023-05-06T23:42:06.127Z,100550.95
2023-05-06T23:44:32.975Z,100554.48
2023-05-06T23:46:59.891Z,100553.70
2023-05-06T23:49:26.718Z,100549.48
2023-05-06T23:51:53.650Z,100543.35
2023-05-06T23:54:21.050Z,100541.75
2023-05-06T23:56:48.037Z,100542.84
2023-05-06T23:59:14.881Z,100544.80
